Shawnee Mission, KS (66225)

12:05 PM CST on February 07, 2016 (GMT -0600)
Lexington Park | | Change Station
CLOSE
Current Station
Personal Weather Station
Location: Overland Park, KS
Elevation: 988 ft
Nearby Weather Stations

Elev 988 ft 38.91 °N, 94.68 °W | Updated 20 seconds ago

Clear
Clear
50.7 °F
Feels Like 50.7 °F
N
1.1
Wind Variable Wind from WNW
Gusts 2.5 mph

Today
High -- | Low -- °F
--% Chance of Precip.
Yesterday
High -- | Low -- °F
Precip. -- in
Pressure 30.06 in
Visibility 10.0 miles
Clouds Overcast 11000 ft
Dew Point 25 °F
Humidity 36%
Rainfall 0.00 in
Snow Depth Not available.
7:19 AM 5:46 PM
Waning Crescent, 1% visible
METAR KOJC 071753Z 31013G23KT 10SM OVC110 09/M05 A3005 RMK AO2 RAE28 SLP180 P0000 60000 T00941050 10094 20028 50002
Pressure 30.06 in
Visibility 10.0 miles
Clouds Overcast 11000 ft
Dew Point 25 °F
Humidity 36%
Rainfall 0.00 in
Snow Depth Not available.
7:19 AM 5:46 PM
Waning Crescent, 1% visible
METAR KOJC 071753Z 31013G23KT 10SM OVC110 09/M05 A3005 RMK AO2 RAE28 SLP180 P0000 60000 T00941050 10094 20028 50002

10-Day Weather Forecast

Almanac

Astronomy

Feb. 07, 2016 Rise Set
Actual Time
Civil Twilight
Nautical Twilight
Astronomical Twilight
Moon
Length of Visible Light
Length of Day
Tomorrow will be .
, % of the Moon is Illuminated

Today's Extremes

State Highs State Lows

Community

WunderPhotos

Upload Photos

1,891,263 photos uploaded!

WunderBlog® & News

Nearby

Air Quality

  Air Quality AQ Index Pollutant
Not available.

Snow Depth

Station Depth Elevation

Earthquake Activity

City Distance Mag. Time & Date
Minimum magnitude displayed is 2.5.

Coastal Water Temperatures

Place Temperature

Stations

Nearby Weather Stations

Station Location Temp. Windchill Dew Point Humidity Wind Precip. Elev Updated Type
                   

Watches & Warnings

There are currently no watches in effect.